Time;durP1;ratioP1;P1;durP2;ratioP2;P2;SDS_P1;SDS_P2;PMS_P1;PMS_P2;Temp;Humidity;BMP_temperature;BMP_pressure;BME280_temperature;BME280_humidity;BME280_pressure;Samples;Min_cycle;Max_cycle;Signal;HPM_P1;HPM_P2
2023/07/01 00:01:38;;;;;;;26.48;13.00;;;20.30;97.50;;;;;;5033632;28;20040;-79
2023/07/01 00:04:04;;;;;;;25.80;13.02;;;20.30;97.60;;;;;;5032743;28;20025;-79
2023/07/01 00:06:30;;;;;;;30.83;13.63;;;20.30;97.50;;;;;;5032599;28;20457;-79
2023/07/01 00:08:55;;;;;;;26.60;12.68;;;20.30;97.50;;;;;;5036094;28;20056;-80
2023/07/01 00:11:21;;;;;;;31.40;14.07;;;20.30;97.50;;;;;;5038139;28;20112;-79
2023/07/01 00:13:47;;;;;;;24.33;12.80;;;20.30;97.50;;;;;;5037496;28;20036;-80
2023/07/01 00:16:16;;;;;;;28.85;12.27;;;20.30;97.50;;;;;;5035947;28;20029;-80
2023/07/01 00:18:42;;;;;;;26.48;13.23;;;20.00;97.40;;;;;;5040345;28;20086;-79
2023/07/01 00:21:08;;;;;;;27.05;12.18;;;20.30;97.50;;;;;;5027280;28;20032;-79
2023/07/01 00:23:34;;;;;;;21.52;11.25;;;20.30;97.50;;;;;;5032515;28;20116;-79
2023/07/01 00:26:00;;;;;;;23.45;11.25;;;20.30;97.90;;;;;;5041663;28;20115;-79
2023/07/01 00:28:25;;;;;;;21.05;10.82;;;20.30;97.50;;;;;;5037916;28;20063;-79
2023/07/01 00:30:51;;;;;;;26.13;11.70;;;20.30;97.50;;;;;;5038543;28;20128;-79
2023/07/01 00:33:17;;;;;;;42.97;10.82;;;20.30;97.40;;;;;;5035507;28;20091;-79
2023/07/01 00:35:42;;;;;;;20.92;10.80;;;20.30;97.50;;;;;;5034599;28;20466;-80
2023/07/01 00:38:08;;;;;;;23.90;10.93;;;20.30;97.40;;;;;;5036240;28;20051;-79
2023/07/01 00:40:34;;;;;;;20.40;10.25;;;20.30;97.40;;;;;;5046581;28;20451;-79
2023/07/01 00:43:00;;;;;;;23.40;10.88;;;20.30;97.40;;;;;;5037950;28;20025;-79
2023/07/01 00:45:25;;;;;;;22.65;10.63;;;20.30;97.40;;;;;;5038305;28;20056;-79
2023/07/01 00:47:51;;;;;;;19.40;10.10;;;20.30;97.40;;;;;;5037782;28;20096;-79
2023/07/01 00:50:17;;;;;;;19.83;10.07;;;20.30;97.40;;;;;;5034682;28;20366;-79
2023/07/01 00:52:43;;;;;;;19.40;10.57;;;20.30;97.40;;;;;;5034617;28;20014;-80
2023/07/01 00:55:10;;;;;;;20.27;10.23;;;20.30;97.40;;;;;;5045492;28;20013;-80
2023/07/01 00:57:36;;;;;;;19.23;10.57;;;20.30;97.40;;;;;;5045364;28;20107;-79
2023/07/01 01:00:08;;;;;;;22.48;9.48;;;20.30;97.30;;;;;;5040675;28;20075;-80
2023/07/01 01:02:43;;;;;;;23.67;9.55;;;20.30;97.40;;;;;;5038732;28;20059;-79
2023/07/01 01:05:15;;;;;;;17.35;8.60;;;20.30;97.30;;;;;;5037252;28;20104;-80
2023/07/01 01:08:06;;;;;;;21.63;9.88;;;20.30;97.30;;;;;;5037070;28;20386;-80
2023/07/01 01:10:35;;;;;;;16.52;9.23;;;20.30;97.30;;;;;;5042000;28;20029;-80
2023/07/01 01:13:03;;;;;;;14.68;8.60;;;20.30;97.30;;;;;;5042583;28;20811;-79
2023/07/01 01:15:29;;;;;;;17.63;8.88;;;20.30;97.30;;;;;;5040943;28;20026;-79
2023/07/01 01:17:58;;;;;;;13.50;7.40;;;20.30;97.30;;;;;;5040946;28;20036;-80
2023/07/01 01:20:30;;;;;;;11.73;7.22;;;20.30;97.30;;;;;;5037647;28;20386;-79
2023/07/01 01:23:01;;;;;;;15.95;7.10;;;20.30;97.30;;;;;;5038787;28;20523;-79
2023/07/01 01:25:42;;;;;;;14.85;7.03;;;20.30;97.20;;;;;;5043253;28;20025;-80
2023/07/01 01:28:09;;;;;;;13.57;6.22;;;20.30;97.20;;;;;;5040659;28;20486;-79
2023/07/01 01:30:35;;;;;;;16.35;5.70;;;20.30;97.20;;;;;;5040289;28;20048;-79
2023/07/01 01:33:02;;;;;;;9.98;5.47;;;20.30;97.10;;;;;;5042412;28;20033;-79
2023/07/01 01:35:28;;;;;;;8.68;4.97;;;20.30;97.10;;;;;;5040020;28;20028;-81
2023/07/01 01:37:58;;;;;;;11.68;5.72;;;20.30;97.40;;;;;;5023919;28;20025;-80
2023/07/01 01:40:33;;;;;;;8.85;5.40;;;20.30;97.10;;;;;;5039135;28;20036;-79
2023/07/01 01:43:37;;;;;;;9.02;5.10;;;20.30;97.10;;;;;;5038392;28;20473;-79
2023/07/01 01:46:05;;;;;;;8.73;4.50;;;20.20;97.30;;;;;;5017390;28;20045;-79
2023/07/01 01:48:31;;;;;;;9.90;4.60;;;20.30;97.00;;;;;;5042433;28;20108;-79
2023/07/01 01:50:59;;;;;;;5.75;3.60;;;20.30;96.90;;;;;;5039892;28;20033;-79
2023/07/01 01:53:27;;;;;;;6.32;3.40;;;20.20;96.90;;;;;;5039254;28;20053;-79
2023/07/01 01:55:54;;;;;;;7.30;3.35;;;20.30;96.90;;;;;;5022213;28;20025;-79
2023/07/01 01:58:20;;;;;;;18.42;3.92;;;20.20;96.80;;;;;;5036556;28;20055;-79
2023/07/01 02:00:46;;;;;;;6.03;3.60;;;20.20;96.70;;;;;;5043474;28;20544;-78
2023/07/01 02:03:11;;;;;;;7.50;3.72;;;20.30;96.70;;;;;;5048885;28;20021;-79
2023/07/01 02:05:37;;;;;;;9.63;4.28;;;20.20;96.70;;;;;;5047658;28;20032;-79
2023/07/01 02:08:04;;;;;;;9.45;4.00;;;20.20;96.70;;;;;;5043920;28;20093;-79
2023/07/01 02:10:30;;;;;;;16.08;4.10;;;20.30;96.70;;;;;;5040269;28;20585;-79
2023/07/01 02:12:55;;;;;;;10.43;3.65;;;20.20;96.70;;;;;;5041014;28;20362;-79
2023/07/01 02:15:21;;;;;;;9.93;3.65;;;20.20;96.60;;;;;;5039453;28;20020;-79
2023/07/01 02:17:47;;;;;;;7.88;3.55;;;20.20;96.60;;;;;;5041350;28;20022;-79
2023/07/01 02:20:13;;;;;;;11.60;4.13;;;20.20;96.60;;;;;;5045259;28;20037;-79
2023/07/01 02:22:38;;;;;;;5.13;3.53;;;20.20;96.60;;;;;;5046038;28;20017;-79
2023/07/01 02:25:05;;;;;;;5.93;2.83;;;20.20;96.50;;;;;;5043379;28;20021;-79
2023/07/01 02:27:31;;;;;;;6.82;2.85;;;20.20;96.50;;;;;;5043067;28;20060;-79
2023/07/01 02:29:57;;;;;;;8.05;3.63;;;20.20;96.50;;;;;;5040393;28;20016;-79
2023/07/01 02:32:23;;;;;;;7.82;2.92;;;20.20;96.40;;;;;;5036490;28;20505;-79
2023/07/01 02:34:49;;;;;;;6.65;3.55;;;20.20;96.40;;;;;;5043845;28;20048;-80
2023/07/01 02:37:15;;;;;;;7.97;3.72;;;20.20;96.40;;;;;;5046601;28;20025;-79
2023/07/01 02:39:42;;;;;;;6.28;3.30;;;20.20;96.40;;;;;;5023444;28;20029;-79
2023/07/01 02:42:08;;;;;;;14.18;4.60;;;20.20;96.40;;;;;;5039054;28;20068;-79
2023/07/01 02:44:33;;;;;;;6.88;3.30;;;20.20;96.40;;;;;;5039290;28;20053;-79
2023/07/01 02:46:59;;;;;;;9.45;3.90;;;20.20;96.40;;;;;;5035716;28;20022;-79
2023/07/01 02:49:25;;;;;;;11.50;4.22;;;20.20;96.30;;;;;;5039170;28;20044;-79
2023/07/01 02:51:51;;;;;;;12.20;3.70;;;20.20;96.30;;;;;;5042992;28;20037;-79
2023/07/01 02:54:16;;;;;;;8.35;3.55;;;20.20;96.30;;;;;;5042460;28;20067;-79
2023/07/01 02:56:42;;;;;;;7.15;3.20;;;20.20;96.30;;;;;;5040816;28;20071;-79
2023/07/01 02:59:07;;;;;;;6.32;3.95;;;20.20;96.30;;;;;;5037062;28;20017;-79
2023/07/01 03:01:33;;;;;;;7.68;3.22;;;20.20;96.30;;;;;;5038314;28;20351;-79
2023/07/01 03:03:58;;;;;;;5.90;3.25;;;20.20;96.30;;;;;;5020745;28;20390;-79
2023/07/01 03:06:25;;;;;;;4.88;3.17;;;20.20;96.30;;;;;;5035676;28;20025;-79
2023/07/01 03:08:51;;;;;;;4.50;2.78;;;20.20;96.20;;;;;;5041276;28;20120;-79
2023/07/01 03:11:16;;;;;;;4.82;2.63;;;20.20;96.20;;;;;;5041687;28;20442;-79
2023/07/01 03:13:42;;;;;;;9.02;3.20;;;20.20;96.20;;;;;;5030893;28;20541;-79
2023/07/01 03:16:09;;;;;;;5.60;2.53;;;20.20;96.20;;;;;;5040943;28;20056;-78
2023/07/01 03:18:35;;;;;;;4.97;2.92;;;20.20;96.20;;;;;;5038372;28;20025;-79
2023/07/01 03:21:01;;;;;;;7.30;3.20;;;20.20;96.10;;;;;;5037212;28;20466;-78
2023/07/01 03:23:27;;;;;;;5.10;2.67;;;20.20;96.10;;;;;;5025962;28;20027;-78
2023/07/01 03:25:53;;;;;;;4.55;3.03;;;20.20;96.10;;;;;;5039410;28;20010;-78
2023/07/01 03:28:19;;;;;;;5.32;2.88;;;20.20;96.10;;;;;;5039497;28;20036;-79
2023/07/01 03:30:44;;;;;;;11.13;2.90;;;20.20;96.00;;;;;;5037077;28;20071;-78
2023/07/01 03:33:12;;;;;;;4.18;2.85;;;20.20;96.00;;;;;;5036566;28;20031;-79
2023/07/01 03:35:38;;;;;;;13.75;3.00;;;20.20;96.00;;;;;;5038749;28;20056;-78
2023/07/01 03:38:04;;;;;;;4.70;2.40;;;20.10;95.90;;;;;;5046650;28;20488;-79
2023/07/01 03:40:30;;;;;;;10.73;2.42;;;20.20;96.00;;;;;;5019778;28;20111;-78
2023/07/01 03:42:56;;;;;;;2.95;2.00;;;20.20;95.90;;;;;;5040987;28;20030;-79
2023/07/01 03:45:21;;;;;;;4.07;2.47;;;20.20;95.90;;;;;;5042018;28;20420;-79
2023/07/01 03:47:47;;;;;;;3.92;2.08;;;20.20;95.90;;;;;;5039361;28;20017;-79
2023/07/01 03:50:13;;;;;;;4.32;2.30;;;20.20;95.90;;;;;;5037588;28;20438;-78
2023/07/01 03:52:40;;;;;;;4.60;2.58;;;20.20;95.80;;;;;;5044384;28;20147;-79
2023/07/01 03:55:08;;;;;;;4.07;2.38;;;20.20;95.80;;;;;;5045411;28;20505;-79
2023/07/01 03:57:34;;;;;;;7.55;2.80;;;20.20;95.80;;;;;;5044124;28;20082;-79
2023/07/01 04:00:00;;;;;;;3.80;2.38;;;20.20;95.80;;;;;;5041930;28;20025;-79
2023/07/01 04:02:26;;;;;;;4.68;2.75;;;20.10;95.70;;;;;;5040962;28;20018;-79
2023/07/01 04:04:52;;;;;;;3.92;2.50;;;20.10;95.70;;;;;;5038038;28;20360;-78
2023/07/01 04:07:21;;;;;;;6.85;3.20;;;20.10;95.70;;;;;;5046256;28;20071;-79
2023/07/01 04:09:50;;;;;;;5.10;2.55;;;20.10;95.70;;;;;;5045188;28;20792;-79
2023/07/01 04:12:16;;;;;;;5.80;2.58;;;20.20;95.70;;;;;;5044948;28;20494;-79
2023/07/01 04:14:42;;;;;;;9.00;3.25;;;20.10;95.70;;;;;;5027886;28;20025;-79
2023/07/01 04:17:08;;;;;;;6.10;2.80;;;20.10;95.70;;;;;;5042293;28;20017;-78
2023/07/01 04:19:34;;;;;;;7.00;2.78;;;20.10;95.60;;;;;;5041107;28;20039;-79
2023/07/01 04:21:59;;;;;;;9.48;2.90;;;20.10;95.70;;;;;;5041611;28;20052;-79
2023/07/01 04:24:25;;;;;;;9.88;2.70;;;20.10;95.60;;;;;;5044563;28;20029;-79
2023/07/01 04:26:52;;;;;;;5.93;2.72;;;20.10;95.60;;;;;;5022767;28;20075;-79
2023/07/01 04:29:17;;;;;;;9.70;2.65;;;20.10;95.60;;;;;;5044617;28;20102;-79
2023/07/01 04:31:43;;;;;;;8.02;2.55;;;20.10;95.70;;;;;;5042457;28;20432;-79
2023/07/01 04:34:08;;;;;;;7.65;3.00;;;20.10;95.60;;;;;;5045816;28;20397;-78
2023/07/01 04:36:34;;;;;;;5.20;2.75;;;20.10;95.60;;;;;;5044429;28;20021;-79
2023/07/01 04:39:00;;;;;;;5.93;3.00;;;20.10;95.60;;;;;;5043051;28;20017;-79
2023/07/01 04:41:25;;;;;;;4.65;2.78;;;20.10;95.60;;;;;;5041342;28;20021;-77
2023/07/01 04:43:51;;;;;;;7.32;2.83;;;20.10;95.60;;;;;;5039893;28;20029;-79
2023/07/01 04:46:16;;;;;;;9.48;2.55;;;20.10;95.60;;;;;;5025786;28;20048;-79
2023/07/01 04:48:42;;;;;;;5.03;2.63;;;20.10;95.60;;;;;;5043719;28;20101;-79
2023/07/01 04:51:07;;;;;;;5.38;2.58;;;20.10;95.60;;;;;;5042547;28;20040;-79
2023/07/01 04:53:33;;;;;;;6.47;2.88;;;20.10;95.60;;;;;;5027098;28;20075;-79
2023/07/01 04:55:59;;;;;;;5.00;2.33;;;20.10;95.60;;;;;;5043006;28;20029;-79
2023/07/01 04:58:24;;;;;;;9.45;2.70;;;20.10;95.50;;;;;;5039931;28;20053;-78
2023/07/01 05:00:51;;;;;;;6.43;2.83;;;20.10;95.50;;;;;;5040094;28;20028;-79
2023/07/01 05:03:16;;;;;;;14.00;3.05;;;20.10;95.50;;;;;;5044191;28;20646;-78
2023/07/01 05:05:42;;;;;;;6.80;2.95;;;20.10;95.50;;;;;;5044500;28;20021;-79
2023/07/01 05:08:07;;;;;;;8.68;3.22;;;20.10;95.50;;;;;;5044741;28;20021;-78
2023/07/01 05:10:33;;;;;;;11.98;3.00;;;20.10;95.50;;;;;;5040750;28;20078;-79
2023/07/01 05:12:59;;;;;;;15.13;3.22;;;20.10;95.50;;;;;;5038258;28;20022;-78
2023/07/01 05:15:24;;;;;;;5.05;2.88;;;20.10;95.50;;;;;;5040609;28;20021;-78
2023/07/01 05:17:50;;;;;;;10.93;3.63;;;20.10;95.50;;;;;;5044986;28;20067;-79
2023/07/01 05:20:16;;;;;;;4.47;2.58;;;20.10;95.40;;;;;;5025392;28;20040;-79
2023/07/01 05:22:41;;;;;;;6.35;2.92;;;20.10;95.50;;;;;;5042476;28;20017;-79
2023/07/01 05:25:07;;;;;;;5.50;3.20;;;20.20;95.50;;;;;;5026313;28;20119;-78
2023/07/01 05:27:33;;;;;;;4.80;3.05;;;20.20;95.40;;;;;;5040156;28;20017;-79
2023/07/01 05:29:59;;;;;;;4.70;3.15;;;20.10;95.40;;;;;;5039568;28;20485;-79
2023/07/01 05:32:25;;;;;;;3.97;2.83;;;20.20;95.40;;;;;;5038950;28;20064;-79
2023/07/01 05:34:50;;;;;;;10.18;3.20;;;20.20;95.40;;;;;;5046768;28;20021;-79
2023/07/01 05:37:16;;;;;;;5.93;2.80;;;20.20;95.40;;;;;;5039311;28;20043;-79
2023/07/01 05:39:41;;;;;;;5.80;2.90;;;20.20;95.40;;;;;;5040271;28;20025;-79
2023/07/01 05:42:07;;;;;;;9.82;3.60;;;20.30;95.40;;;;;;5038093;28;20026;-79
2023/07/01 05:44:33;;;;;;;9.20;3.50;;;20.30;95.40;;;;;;5042225;28;20021;-79
2023/07/01 05:46:58;;;;;;;8.93;4.28;;;20.30;95.50;;;;;;5038608;28;20029;-79
2023/07/01 05:49:24;;;;;;;9.68;4.05;;;20.30;95.50;;;;;;5042219;28;20025;-79
2023/07/01 05:51:50;;;;;;;8.45;4.72;;;20.30;95.90;;;;;;5041178;28;20040;-79
2023/07/01 05:54:15;;;;;;;5.38;3.83;;;20.30;95.40;;;;;;5023391;28;20033;-79
2023/07/01 05:56:41;;;;;;;5.55;3.92;;;20.30;95.50;;;;;;5039280;28;20416;-79
2023/07/01 05:59:06;;;;;;;9.13;3.85;;;20.30;95.60;;;;;;5039274;28;20021;-79
2023/07/01 06:01:32;;;;;;;5.75;3.80;;;20.30;95.70;;;;;;5026106;28;20024;-79
2023/07/01 06:03:58;;;;;;;5.68;3.30;;;20.30;96.00;;;;;;5026122;28;20112;-79
2023/07/01 06:06:23;;;;;;;6.80;3.75;;;20.30;95.70;;;;;;5045811;28;20478;-79
2023/07/01 06:08:49;;;;;;;11.30;3.75;;;20.20;95.70;;;;;;5045643;28;20037;-79
2023/07/01 06:11:15;;;;;;;5.07;3.05;;;20.20;95.80;;;;;;5037524;28;20049;-79
2023/07/01 06:13:45;;;;;;;7.63;3.97;;;20.20;95.80;;;;;;5044903;28;20017;-79
2023/07/01 06:16:11;;;;;;;5.75;3.42;;;20.20;95.70;;;;;;5041437;28;20072;-79
2023/07/01 06:18:37;;;;;;;10.20;4.05;;;20.20;95.80;;;;;;5027391;28;20036;-79
2023/07/01 06:21:03;;;;;;;17.05;3.88;;;20.20;95.70;;;;;;5050046;28;20119;-80
2023/07/01 06:23:30;;;;;;;7.70;3.90;;;20.20;95.70;;;;;;5062266;28;20061;-79
2023/07/01 06:25:57;;;;;;;8.40;4.13;;;20.20;96.00;;;;;;5061123;28;20074;-79
2023/07/01 06:28:22;;;;;;;5.25;3.80;;;20.20;95.90;;;;;;5061846;28;20029;-80
2023/07/01 06:30:48;;;;;;;9.18;3.17;;;20.20;95.90;;;;;;5061838;28;20044;-79
2023/07/01 06:33:14;;;;;;;8.40;3.60;;;20.20;95.90;;;;;;5058218;28;20029;-79
2023/07/01 06:35:42;;;;;;;7.30;3.78;;;20.20;96.00;;;;;;5061855;28;20040;-79
2023/07/01 06:38:11;;;;;;;6.10;4.68;;;20.20;95.90;;;;;;5066217;28;20025;-79
2023/07/01 06:40:37;;;;;;;7.93;4.30;;;20.20;95.90;;;;;;5058352;28;20040;-79
2023/07/01 06:43:03;;;;;;;5.75;3.80;;;20.20;96.00;;;;;;5061062;28;20036;-79
2023/07/01 06:45:29;;;;;;;9.93;3.85;;;20.20;96.10;;;;;;5062309;28;20070;-79
2023/07/01 06:47:55;;;;;;;5.72;3.85;;;20.20;96.00;;;;;;5062373;28;20024;-79
2023/07/01 06:50:20;;;;;;;6.72;4.03;;;20.20;96.10;;;;;;5059960;28;20029;-79
2023/07/01 06:52:46;;;;;;;5.43;3.40;;;20.20;96.10;;;;;;5047230;28;20641;-79
2023/07/01 06:55:15;;;;;;;6.82;2.90;;;20.20;96.20;;;;;;5063516;28;20024;-80
2023/07/01 06:57:44;;;;;;;7.95;3.03;;;20.30;96.50;;;;;;5047041;28;20104;-79
2023/07/01 07:00:13;;;;;;;6.55;3.50;;;20.30;96.40;;;;;;5063594;28;20155;-79
2023/07/01 07:02:39;;;;;;;11.10;4.88;;;20.30;96.40;;;;;;5042940;28;20405;-79
2023/07/01 07:05:06;;;;;;;7.00;4.70;;;20.30;96.30;;;;;;5050405;28;20103;-79
2023/07/01 07:07:32;;;;;;;8.98;4.97;;;20.30;96.30;;;;;;5046262;28;20021;-79
2023/07/01 07:09:58;;;;;;;6.05;3.03;;;20.30;96.30;;;;;;5067706;28;20021;-79
2023/07/01 07:12:25;;;;;;;4.57;3.50;;;20.30;96.40;;;;;;5044847;28;20033;-80
2023/07/01 07:14:51;;;;;;;4.32;3.05;;;20.30;96.30;;;;;;5065317;28;20051;-79
2023/07/01 07:17:17;;;;;;;4.50;3.22;;;20.30;96.30;;;;;;5063196;28;20769;-80
2023/07/01 07:19:42;;;;;;;3.40;2.88;;;20.30;96.10;;;;;;5068706;28;20086;-79
2023/07/01 07:22:08;;;;;;;9.82;3.13;;;20.40;96.10;;;;;;5069492;28;20012;-80
2023/07/01 07:24:34;;;;;;;8.13;3.17;;;20.40;96.50;;;;;;5066743;28;20025;-79
2023/07/01 07:27:00;;;;;;;11.10;3.20;;;20.40;95.90;;;;;;5066180;28;20024;-79
2023/07/01 07:29:33;;;;;;;7.57;3.05;;;20.40;96.00;;;;;;5063043;28;20025;-79
2023/07/01 07:32:00;;;;;;;10.20;3.50;;;20.40;96.20;;;;;;5067692;28;20051;-79
2023/07/01 07:34:25;;;;;;;8.15;2.97;;;20.40;96.10;;;;;;5048157;28;20405;-81
2023/07/01 07:36:52;;;;;;;4.03;2.15;;;20.40;96.10;;;;;;5063671;28;20025;-80
2023/07/01 07:39:17;;;;;;;8.27;3.45;;;20.40;96.10;;;;;;5061920;28;20108;-80
2023/07/01 07:41:44;;;;;;;3.75;2.88;;;20.40;96.00;;;;;;5052081;28;20104;-80
2023/07/01 07:44:10;;;;;;;5.72;2.42;;;20.40;96.00;;;;;;5049421;28;20020;-81
2023/07/01 07:46:37;;;;;;;7.45;3.30;;;20.40;95.90;;;;;;5044698;28;20043;-81
2023/07/01 07:49:03;;;;;;;6.55;2.83;;;20.40;95.90;;;;;;5064490;28;20141;-82
2023/07/01 07:51:29;;;;;;;5.68;2.78;;;20.40;96.00;;;;;;5061794;28;20068;-80
2023/07/01 07:53:54;;;;;;;4.93;2.88;;;20.40;96.10;;;;;;5062296;28;20469;-79
2023/07/01 07:56:20;;;;;;;4.50;2.88;;;20.40;96.00;;;;;;5059704;28;20021;-80
2023/07/01 07:58:46;;;;;;;4.43;2.70;;;20.40;96.10;;;;;;5066005;28;20024;-79
2023/07/01 08:01:12;;;;;;;5.07;3.17;;;20.40;96.00;;;;;;5060418;28;20025;-80
2023/07/01 08:03:38;;;;;;;6.63;3.38;;;20.40;95.80;;;;;;5046317;28;20028;-79
2023/07/01 08:06:04;;;;;;;5.47;2.08;;;20.40;95.70;;;;;;5063176;28;20020;-83
2023/07/01 08:08:30;;;;;;;8.00;3.15;;;20.40;95.70;;;;;;5039066;28;20367;-80
2023/07/01 08:10:56;;;;;;;5.22;2.70;;;20.40;95.30;;;;;;5060031;28;20784;-82
2023/07/01 08:13:22;;;;;;;6.00;3.10;;;20.40;95.40;;;;;;5064006;28;20033;-81
2023/07/01 08:15:47;;;;;;;6.43;3.03;;;20.50;95.60;;;;;;5060695;28;20029;-82
2023/07/01 08:18:13;;;;;;;5.13;3.10;;;20.50;95.40;;;;;;5040301;28;20040;-81
2023/07/01 08:20:39;;;;;;;11.38;3.13;;;20.50;95.50;;;;;;5066307;28;20029;-79
2023/07/01 08:23:05;;;;;;;6.50;3.25;;;20.50;95.30;;;;;;5050687;28;20055;-80
2023/07/01 08:25:31;;;;;;;7.28;2.97;;;20.50;95.30;;;;;;5041642;28;20035;-80
2023/07/01 08:27:58;;;;;;;3.50;2.58;;;20.50;95.00;;;;;;5048215;28;20017;-81
2023/07/01 08:30:24;;;;;;;3.53;2.65;;;20.50;94.90;;;;;;5044883;28;20025;-79
2023/07/01 08:32:49;;;;;;;3.75;2.50;;;20.50;95.20;;;;;;5071457;28;20092;-79
2023/07/01 08:35:15;;;;;;;6.03;3.53;;;20.60;95.20;;;;;;5074814;28;20046;-80
2023/07/01 08:37:40;;;;;;;7.15;3.60;;;20.60;95.20;;;;;;5046930;28;20057;-81
2023/07/01 08:40:07;;;;;;;6.43;2.30;;;20.50;95.00;;;;;;5063170;28;20021;-79
2023/07/01 08:42:43;;;;;;;3.35;2.30;;;20.60;94.90;;;;;;5055161;28;20049;-81
2023/07/01 08:45:10;;;;;;;5.32;2.33;;;20.60;95.10;;;;;;5056203;28;20732;-82
2023/07/01 08:47:35;;;;;;;2.53;2.33;;;20.60;95.00;;;;;;5051556;28;20061;-81
2023/07/01 08:50:05;;;;;;;7.70;2.55;;;20.50;94.70;;;;;;5058823;28;20063;-82
2023/07/01 08:52:41;;;;;;;8.45;2.38;;;20.50;94.30;;;;;;5064542;28;20036;-82
2023/07/01 08:55:13;;;;;;;4.03;3.10;;;20.50;94.20;;;;;;5063585;28;20029;-81
2023/07/01 08:57:40;;;;;;;9.38;2.35;;;20.50;94.70;;;;;;5056871;28;20078;-81
2023/07/01 09:00:10;;;;;;;6.88;2.83;;;20.50;94.70;;;;;;5057398;28;20024;-83
2023/07/01 09:02:36;;;;;;;11.65;3.00;;;20.50;94.70;;;;;;5067152;28;20078;-81
2023/07/01 09:05:03;;;;;;;3.20;2.10;;;20.60;95.00;;;;;;5074181;28;20071;-83
2023/07/01 09:07:29;;;;;;;4.82;2.83;;;20.50;95.00;;;;;;5054990;28;20493;-83
2023/07/01 09:10:00;;;;;;;6.20;2.88;;;20.50;94.30;;;;;;5053666;28;20024;-81
2023/07/01 09:12:32;;;;;;;7.57;2.22;;;20.60;94.20;;;;;;5056881;28;20040;-82
2023/07/01 09:14:58;;;;;;;5.13;2.78;;;20.50;94.80;;;;;;5042877;28;20030;-81
2023/07/01 09:17:32;;;;;;;4.70;2.55;;;20.60;94.90;;;;;;5069096;28;20338;-80
2023/07/01 09:20:04;;;;;;;3.67;2.38;;;20.60;95.00;;;;;;5071143;28;20036;-81
2023/07/01 09:22:31;;;;;;;12.48;2.42;;;20.60;95.00;;;;;;5050144;28;20428;-82
2023/07/01 09:24:57;;;;;;;3.25;2.05;;;20.60;95.00;;;;;;5065254;28;20012;-81
2023/07/01 09:27:24;;;;;;;4.60;2.85;;;20.50;94.90;;;;;;5060814;28;20115;-80
2023/07/01 09:29:52;;;;;;;11.40;2.67;;;20.60;95.40;;;;;;5059768;28;20059;-81
2023/07/01 09:32:34;;;;;;;4.50;2.28;;;20.60;94.70;;;;;;5067273;28;20105;-84
2023/07/01 09:35:00;;;;;;;4.05;2.60;;;20.60;94.60;;;;;;5065804;28;20107;-83
2023/07/01 09:37:26;;;;;;;6.10;2.35;;;20.60;94.80;;;;;;5052381;28;20119;-82
2023/07/01 09:39:52;;;;;;;4.60;2.15;;;20.60;94.50;;;;;;5065985;28;20458;-82
2023/07/01 09:42:18;;;;;;;2.50;2.00;;;20.60;94.60;;;;;;5065058;28;20027;-85
2023/07/01 09:45:19;;;;;;;2.42;1.80;;;20.60;94.80;;;;;;5039738;28;20489;-82
2023/07/01 09:47:51;;;;;;;7.93;2.40;;;20.60;94.60;;;;;;4987454;28;20029;-82
2023/07/01 09:50:26;;;;;;;4.63;2.50;;;20.60;94.70;;;;;;4985962;28;20132;-81
2023/07/01 09:52:53;;;;;;;5.55;2.47;;;20.60;94.60;;;;;;4973234;28;20026;-81
2023/07/01 09:55:19;;;;;;;3.92;2.67;;;20.60;94.60;;;;;;4987796;28;20044;-83
2023/07/01 09:57:45;;;;;;;8.82;2.88;;;20.60;94.50;;;;;;4980844;28;20019;-81
2023/07/01 10:00:15;;;;;;;3.90;2.40;;;20.60;94.80;;;;;;4979521;28;20476;-83
2023/07/01 10:02:45;;;;;;;3.38;2.58;;;20.70;94.70;;;;;;4983969;28;20498;-81
2023/07/01 10:05:12;;;;;;;3.50;2.40;;;20.60;94.70;;;;;;4984712;28;20057;-82
2023/07/01 10:07:39;;;;;;;8.77;2.70;;;20.60;94.50;;;;;;4965267;28;20037;-82
2023/07/01 10:10:10;;;;;;;6.47;2.40;;;20.60;94.80;;;;;;4971199;28;20383;-82
2023/07/01 10:12:37;;;;;;;4.40;2.35;;;20.60;94.80;;;;;;4967735;28;20041;-83
2023/07/01 10:15:05;;;;;;;7.78;1.95;;;20.60;94.50;;;;;;4988522;28;20027;-84
2023/07/01 10:17:51;;;;;;;6.22;2.95;;;20.60;94.70;;;;;;4971696;28;20073;-85
2023/07/01 10:20:26;;;;;;;5.90;2.72;;;20.60;94.20;;;;;;4985478;28;20062;-82
2023/07/01 10:22:55;;;;;;;3.60;2.30;;;20.70;94.40;;;;;;5064114;28;20799;-81
2023/07/01 10:25:35;;;;;;;5.53;2.47;;;20.70;94.50;;;;;;5082070;28;20021;-82
2023/07/01 10:28:01;;;;;;;3.53;1.92;;;20.70;94.70;;;;;;5069233;28;20052;-83
2023/07/01 10:30:47;;;;;;;4.25;2.45;;;20.70;94.50;;;;;;5048136;28;20016;-83
2023/07/01 10:33:29;;;;;;;2.95;2.13;;;20.70;94.60;;;;;;5066062;28;20032;-83
2023/07/01 10:36:07;;;;;;;4.32;2.78;;;20.70;94.40;;;;;;5052657;28;20073;-83
2023/07/01 10:38:34;;;;;;;5.45;2.30;;;20.70;94.50;;;;;;5051130;28;20020;-84
2023/07/01 10:40:59;;;;;;;6.97;2.78;;;20.70;94.30;;;;;;5071436;28;20055;-83
2023/07/01 10:43:33;;;;;;;4.35;2.65;;;20.70;94.50;;;;;;5051500;28;20059;-85
2023/07/01 10:46:13;;;;;;;5.75;2.60;;;20.70;94.50;;;;;;5067747;28;20020;-85
2023/07/01 10:48:39;;;;;;;3.43;2.43;;;20.70;94.00;;;;;;5070085;28;20036;-83
2023/07/01 10:51:07;;;;;;;4.18;2.88;;;20.80;94.40;;;;;;5067267;28;20314;-85
2023/07/01 10:53:58;;;;;;;5.97;2.65;;;20.70;94.40;;;;;;5065888;28;20017;-82
2023/07/01 10:56:24;;;;;;;6.25;2.78;;;20.70;94.70;;;;;;5063076;28;20059;-82
2023/07/01 10:59:22;;;;;;;4.78;2.70;;;20.70;94.40;;;;;;5071528;28;20380;-82
2023/07/01 11:01:52;;;;;;;11.82;2.92;;;20.70;94.30;;;;;;5073904;28;20024;-84
2023/07/01 11:04:19;;;;;;;7.72;3.13;;;20.70;94.40;;;;;;5071439;28;20032;-84
2023/07/01 11:06:46;;;;;;;8.15;3.20;;;20.80;94.40;;;;;;5053462;28;20051;-81
2023/07/01 11:09:13;;;;;;;5.10;2.92;;;20.70;94.10;;;;;;5050840;28;20025;-83
2023/07/01 11:11:38;;;;;;;6.60;3.13;;;20.80;94.20;;;;;;5048609;28;20116;-84
2023/07/01 11:14:09;;;;;;;3.28;2.38;;;20.80;94.00;;;;;;5068203;28;20108;-83
2023/07/01 11:16:37;;;;;;;4.93;3.15;;;20.80;94.10;;;;;;5073158;28;20012;-83
2023/07/01 11:19:05;;;;;;;4.35;2.75;;;20.80;94.20;;;;;;5041777;28;20025;-82
2023/07/01 11:21:31;;;;;;;6.80;2.75;;;20.80;94.20;;;;;;5042228;28;20062;-83
2023/07/01 11:24:08;;;;;;;6.65;2.78;;;20.80;94.10;;;;;;5045152;28;20051;-82
2023/07/01 11:26:35;;;;;;;4.75;1.95;;;20.80;94.00;;;;;;5037732;28;20028;-84
2023/07/01 11:29:02;;;;;;;2.30;1.13;;;20.80;94.40;;;;;;5040070;28;20017;-82
2023/07/01 11:31:33;;;;;;;3.05;1.90;;;20.80;93.90;;;;;;5078086;28;20714;-84
2023/07/01 11:34:00;;;;;;;5.13;2.22;;;20.80;94.00;;;;;;5043492;28;20566;-84
2023/07/01 11:36:39;;;;;;;3.13;2.33;;;20.80;94.00;;;;;;5071096;28;20025;-84
2023/07/01 11:39:15;;;;;;;3.55;2.15;;;20.80;93.80;;;;;;5062958;28;20020;-83
2023/07/01 11:42:03;;;;;;;3.75;1.75;;;20.80;93.90;;;;;;5035716;28;20028;-85
2023/07/01 11:44:32;;;;;;;6.88;2.38;;;20.80;93.90;;;;;;5056595;28;20033;-85
2023/07/01 11:46:58;;;;;;;2.58;2.08;;;20.90;93.90;;;;;;5071479;28;20530;-83
2023/07/01 11:49:29;;;;;;;4.13;2.45;;;20.90;94.00;;;;;;5070255;28;20032;-83
2023/07/01 11:52:03;;;;;;;5.47;2.47;;;20.90;93.90;;;;;;5067604;28;20094;-84
2023/07/01 11:54:48;;;;;;;6.13;2.10;;;20.50;93.70;;;;;;5064544;28;20032;-84
2023/07/01 11:57:18;;;;;;;4.90;2.28;;;20.80;94.00;;;;;;5040653;28;20029;-82
2023/07/01 11:59:58;;;;;;;2.72;2.05;;;20.80;93.70;;;;;;5051462;28;20016;-83
2023/07/01 12:02:31;;;;;;;4.17;2.43;;;20.80;93.80;;;;;;5075612;28;20024;-84
2023/07/01 12:04:57;;;;;;;6.55;2.58;;;20.80;93.90;;;;;;5049041;28;20032;-84
2023/07/01 12:07:22;;;;;;;3.10;2.22;;;20.80;94.00;;;;;;5052446;28;20539;-82
2023/07/01 12:09:48;;;;;;;2.80;2.00;;;20.80;93.90;;;;;;5050765;28;20074;-83
2023/07/01 12:12:18;;;;;;;3.97;2.25;;;20.80;93.70;;;;;;5047705;28;20028;-84
2023/07/01 12:14:45;;;;;;;3.95;2.25;;;20.80;93.70;;;;;;5058670;28;20469;-84
2023/07/01 12:17:30;;;;;;;8.95;3.40;;;20.80;93.80;;;;;;5069189;28;20504;-81
2023/07/01 12:19:58;;;;;;;6.60;3.17;;;20.80;93.60;;;;;;5071452;28;20032;-83
2023/07/01 12:22:24;;;;;;;3.90;2.40;;;20.80;93.80;;;;;;5069016;28;20054;-86
2023/07/01 12:24:57;;;;;;;6.55;2.30;;;20.80;93.70;;;;;;5052203;28;20021;-83
2023/07/01 12:27:23;;;;;;;3.67;2.40;;;20.80;93.70;;;;;;5063916;28;20445;-83
2023/07/01 12:29:48;;;;;;;11.30;2.80;;;20.80;93.80;;;;;;5043060;28;20111;-82
2023/07/01 12:32:14;;;;;;;5.20;3.38;;;20.70;93.80;;;;;;5065667;28;20141;-82
2023/07/01 12:34:40;;;;;;;12.10;4.55;;;21.30;93.90;;;;;;5043828;28;20786;-83
2023/07/01 12:37:09;;;;;;;4.80;2.83;;;20.80;93.60;;;;;;5047166;28;20025;-83
2023/07/01 12:39:36;;;;;;;7.72;2.30;;;20.70;93.80;;;;;;5041385;28;20028;-83
2023/07/01 12:42:02;;;;;;;3.25;1.83;;;20.70;93.80;;;;;;5064760;28;20481;-83
2023/07/01 12:44:28;;;;;;;7.25;1.80;;;20.80;93.60;;;;;;5043422;28;20032;-82
2023/07/01 12:46:54;;;;;;;5.63;1.42;;;20.80;93.70;;;;;;5064210;28;20051;-84